Frederiksvaerk, Denmark
Current Conditions -  °F | °C
As of 8:20 PM on Saturday 20 Dec 2014 (Local Time) from EKRK Reporting Station
Clear Clear  
Wind Chill: 30°   Ceiling: Unl
Heat Index: 39°   Visibility: 6mi
Dew Point: 34°   Wind: 17mph
Humidity: 81%   Direction: 300°WNW
Pressure: 29.62"   Gusts: NA
Location:  55.97°N, 12.02°E
Report Text: EKRK 201920Z AUTO 30015KT 9999NDV NCD 04/01 Q1003
Loading
Personal Weather Stations






























Interactive Weather Map New forecast layout! Learn more

10-Day Weather Forecast

Advertisements
Track Severe Weather on mobile